sensor_id;sensor_type;location;lat;lon;timestamp;pressure;altitude;pressure_sealevel;temperature;humidity
74561;BME280;62979;55.720;37.606;2022-10-12T00:01:07;99941.75;;;9.18;57.89
74561;BME280;62979;55.720;37.606;2022-10-12T00:03:34;99947.84;;;9.17;58.01
74561;BME280;62979;55.720;37.606;2022-10-12T00:06:04;99950.59;;;9.08;58.03
74561;BME280;62979;55.720;37.606;2022-10-12T00:08:34;99936.81;;;8.98;58.55
74561;BME280;62979;55.720;37.606;2022-10-12T00:11:03;99945.56;;;8.94;58.65
74561;BME280;62979;55.720;37.606;2022-10-12T00:13:33;99939.44;;;8.98;58.27
74561;BME280;62979;55.720;37.606;2022-10-12T00:16:01;99939.38;;;9.01;58.63
74561;BME280;62979;55.720;37.606;2022-10-12T00:18:29;99938.53;;;9.00;58.61
74561;BME280;62979;55.720;37.606;2022-10-12T00:21:01;99933.47;;;8.88;58.47
74561;BME280;62979;55.720;37.606;2022-10-12T00:23:29;99938.59;;;8.94;58.45
74561;BME280;62979;55.720;37.606;2022-10-12T00:26:00;99940.50;;;8.83;58.33
74561;BME280;62979;55.720;37.606;2022-10-12T00:28:28;99937.84;;;8.85;58.39
74561;BME280;62979;55.720;37.606;2022-10-12T00:30:57;99934.41;;;8.83;58.70
74561;BME280;62979;55.720;37.606;2022-10-12T00:33:24;99931.81;;;8.81;58.56
74561;BME280;62979;55.720;37.606;2022-10-12T00:35:53;99936.94;;;8.90;58.66
74561;BME280;62979;55.720;37.606;2022-10-12T00:38:20;99924.75;;;8.89;58.59
74561;BME280;62979;55.720;37.606;2022-10-12T00:40:48;99936.03;;;8.93;58.68
74561;BME280;62979;55.720;37.606;2022-10-12T00:43:33;99928.19;;;8.93;58.94
74561;BME280;62979;55.720;37.606;2022-10-12T00:46:11;99912.59;;;8.88;58.89
74561;BME280;62979;55.720;37.606;2022-10-12T00:48:43;99911.69;;;8.91;58.63
74561;BME280;62979;55.720;37.606;2022-10-12T00:51:14;99921.13;;;8.99;58.23
74561;BME280;62979;55.720;37.606;2022-10-12T00:53:51;99927.22;;;9.00;57.99
74561;BME280;62979;55.720;37.606;2022-10-12T00:56:24;99920.31;;;8.97;57.92
74561;BME280;62979;55.720;37.606;2022-10-12T00:58:58;99910.78;;;8.95;57.96
74561;BME280;62979;55.720;37.606;2022-10-12T01:01:32;99914.16;;;9.02;57.85
74561;BME280;62979;55.720;37.606;2022-10-12T01:04:01;99911.53;;;9.02;57.94
74561;BME280;62979;55.720;37.606;2022-10-12T01:06:30;99915.91;;;8.99;57.76
74561;BME280;62979;55.720;37.606;2022-10-12T01:08:58;99911.53;;;9.02;57.88
74561;BME280;62979;55.720;37.606;2022-10-12T01:11:26;99909.78;;;9.04;57.78
74561;BME280;62979;55.720;37.606;2022-10-12T01:13:53;99904.56;;;9.02;57.72
74561;BME280;62979;55.720;37.606;2022-10-12T01:16:26;99913.22;;;9.04;57.75
74561;BME280;62979;55.720;37.606;2022-10-12T01:19:06;99898.53;;;8.98;57.60
74561;BME280;62979;55.720;37.606;2022-10-12T01:21:49;99900.31;;;8.98;57.81
74561;BME280;62979;55.720;37.606;2022-10-12T01:24:40;99901.22;;;8.95;57.92
74561;BME280;62979;55.720;37.606;2022-10-12T01:27:34;99900.38;;;8.93;58.21
74561;BME280;62979;55.720;37.606;2022-10-12T01:30:19;99902.91;;;8.98;58.02
74561;BME280;62979;55.720;37.606;2022-10-12T01:32:57;99903.75;;;9.00;57.80
74561;BME280;62979;55.720;37.606;2022-10-12T01:35:35;99896.97;;;8.88;58.11
74561;BME280;62979;55.720;37.606;2022-10-12T01:38:16;99905.81;;;8.76;58.56
74561;BME280;62979;55.720;37.606;2022-10-12T01:40:55;99906.84;;;8.63;58.90
74561;BME280;62979;55.720;37.606;2022-10-12T01:43:32;99906.00;;;8.63;59.06
74561;BME280;62979;55.720;37.606;2022-10-12T01:46:37;99894.88;;;8.48;59.40
74561;BME280;62979;55.720;37.606;2022-10-12T01:49:06;99898.47;;;8.40;60.12
74561;BME280;62979;55.720;37.606;2022-10-12T01:51:39;99884.50;;;8.45;59.73
74561;BME280;62979;55.720;37.606;2022-10-12T01:54:25;99887.03;;;8.51;59.65
74561;BME280;62979;55.720;37.606;2022-10-12T01:57:03;99885.28;;;8.53;59.79
74561;BME280;62979;55.720;37.606;2022-10-12T01:59:47;99892.19;;;8.54;59.86
74561;BME280;62979;55.720;37.606;2022-10-12T02:02:28;99889.59;;;8.54;59.59
74561;BME280;62979;55.720;37.606;2022-10-12T02:05:04;99890.44;;;8.55;59.60
74561;BME280;62979;55.720;37.606;2022-10-12T02:07:42;99882.63;;;8.55;59.37
74561;BME280;62979;55.720;37.606;2022-10-12T02:10:17;99883.53;;;8.52;58.59
74561;BME280;62979;55.720;37.606;2022-10-12T02:12:51;99880.13;;;8.46;58.70
74561;BME280;62979;55.720;37.606;2022-10-12T02:15:24;99891.50;;;8.42;58.71
74561;BME280;62979;55.720;37.606;2022-10-12T02:17:54;99896.69;;;8.43;58.77
74561;BME280;62979;55.720;37.606;2022-10-12T02:20:25;99895.94;;;8.29;58.81
74561;BME280;62979;55.720;37.606;2022-10-12T02:22:53;99882.06;;;8.30;58.75
74561;BME280;62979;55.720;37.606;2022-10-12T02:25:22;99883.72;;;8.37;58.94
74561;BME280;62979;55.720;37.606;2022-10-12T02:27:56;99884.56;;;8.39;59.12
74561;BME280;62979;55.720;37.606;2022-10-12T02:30:31;99871.59;;;8.33;59.12
74561;BME280;62979;55.720;37.606;2022-10-12T02:33:07;99871.50;;;8.42;58.00
74561;BME280;62979;55.720;37.606;2022-10-12T02:35:45;99880.19;;;8.41;57.58
74561;BME280;62979;55.720;37.606;2022-10-12T02:38:21;99861.16;;;8.33;57.81
74561;BME280;62979;55.720;37.606;2022-10-12T02:40:56;99875.88;;;8.42;58.80
74561;BME280;62979;55.720;37.606;2022-10-12T02:43:33;99874.09;;;8.44;58.30
74561;BME280;62979;55.720;37.606;2022-10-12T02:46:07;99871.59;;;8.34;58.11
74561;BME280;62979;55.720;37.606;2022-10-12T02:48:39;99880.19;;;8.41;58.03
74561;BME280;62979;55.720;37.606;2022-10-12T02:51:08;99880.22;;;8.38;58.03
74561;BME280;62979;55.720;37.606;2022-10-12T02:53:37;99872.53;;;8.26;57.80
74561;BME280;62979;55.720;37.606;2022-10-12T02:56:09;99873.44;;;8.22;57.54
74561;BME280;62979;55.720;37.606;2022-10-12T02:58:37;99878.66;;;8.25;58.00
74561;BME280;62979;55.720;37.606;2022-10-12T03:01:04;99876.16;;;8.15;57.53
74561;BME280;62979;55.720;37.606;2022-10-12T03:03:32;99881.34;;;8.17;57.48
74561;BME280;62979;55.720;37.606;2022-10-12T03:06:00;99881.41;;;8.09;57.66
74561;BME280;62979;55.720;37.606;2022-10-12T03:08:28;99878.84;;;8.06;58.13
74561;BME280;62979;55.720;37.606;2022-10-12T03:11:00;99882.41;;;7.99;57.83
74561;BME280;62979;55.720;37.606;2022-10-12T03:13:28;99882.34;;;8.05;58.08
74561;BME280;62979;55.720;37.606;2022-10-12T03:16:00;99865.13;;;7.92;58.43
74561;BME280;62979;55.720;37.606;2022-10-12T03:18:28;99867.56;;;8.06;58.29
74561;BME280;62979;55.720;37.606;2022-10-12T03:20:55;99866.66;;;8.10;58.84
74561;BME280;62979;55.720;37.606;2022-10-12T03:23:24;99864.88;;;8.13;58.17
74561;BME280;62979;55.720;37.606;2022-10-12T03:25:52;99867.56;;;8.06;58.12
74561;BME280;62979;55.720;37.606;2022-10-12T03:28:19;99869.44;;;7.94;58.62
74561;BME280;62979;55.720;37.606;2022-10-12T03:30:46;99866.09;;;7.82;58.49
74561;BME280;62979;55.720;37.606;2022-10-12T03:33:13;99874.00;;;7.74;58.89
74561;BME280;62979;55.720;37.606;2022-10-12T03:35:42;99877.44;;;7.75;59.02
74561;BME280;62979;55.720;37.606;2022-10-12T03:38:10;99873.13;;;7.72;58.89
74561;BME280;62979;55.720;37.606;2022-10-12T03:40:40;99874.84;;;7.76;58.82
74561;BME280;62979;55.720;37.606;2022-10-12T03:43:07;99867.91;;;7.75;58.59
74561;BME280;62979;55.720;37.606;2022-10-12T03:45:34;99875.66;;;7.80;58.51
74561;BME280;62979;55.720;37.606;2022-10-12T03:48:02;99873.88;;;7.85;58.73
74561;BME280;62979;55.720;37.606;2022-10-12T03:50:29;99875.66;;;7.80;58.89
74561;BME280;62979;55.720;37.606;2022-10-12T03:52:57;99867.00;;;7.78;58.98
74561;BME280;62979;55.720;37.606;2022-10-12T03:55:24;99867.75;;;7.89;58.42
74561;BME280;62979;55.720;37.606;2022-10-12T03:57:53;99869.47;;;7.90;57.97
74561;BME280;62979;55.720;37.606;2022-10-12T04:00:20;99865.97;;;7.94;57.94
74561;BME280;62979;55.720;37.606;2022-10-12T04:02:47;99865.13;;;7.92;57.72
74561;BME280;62979;55.720;37.606;2022-10-12T04:05:14;99871.97;;;8.02;58.09
74561;BME280;62979;55.720;37.606;2022-10-12T04:07:42;99865.88;;;8.02;57.51
74561;BME280;62979;55.720;37.606;2022-10-12T04:10:09;99860.66;;;8.03;57.77
74561;BME280;62979;55.720;37.606;2022-10-12T04:12:36;99867.47;;;8.13;57.78
74561;BME280;62979;55.720;37.606;2022-10-12T04:15:06;99867.47;;;8.15;57.48
74561;BME280;62979;55.720;37.606;2022-10-12T04:17:34;99866.53;;;8.22;57.33
74561;BME280;62979;55.720;37.606;2022-10-12T04:20:01;99866.38;;;8.34;57.80
74561;BME280;62979;55.720;37.606;2022-10-12T04:22:29;99869.78;;;8.41;57.57
74561;BME280;62979;55.720;37.606;2022-10-12T04:24:56;99876.75;;;8.36;56.73
74561;BME280;62979;55.720;37.606;2022-10-12T04:27:24;99868.13;;;8.34;56.49
74561;BME280;62979;55.720;37.606;2022-10-12T04:29:51;99870.63;;;8.43;56.35
74561;BME280;62979;55.720;37.606;2022-10-12T04:32:20;99865.28;;;8.52;56.46
74561;BME280;62979;55.720;37.606;2022-10-12T04:34:47;99866.06;;;8.59;55.88
74561;BME280;62979;55.720;37.606;2022-10-12T04:37:14;99866.94;;;8.61;55.75
74561;BME280;62979;55.720;37.606;2022-10-12T04:39:41;99877.19;;;8.72;55.59
74561;BME280;62979;55.720;37.606;2022-10-12T04:42:08;99870.09;;;8.80;55.46
74561;BME280;62979;55.720;37.606;2022-10-12T04:44:35;99865.75;;;8.82;55.35
74561;BME280;62979;55.720;37.606;2022-10-12T04:47:02;99861.25;;;8.93;55.21
74561;BME280;62979;55.720;37.606;2022-10-12T04:49:31;99863.72;;;9.03;55.16
74561;BME280;62979;55.720;37.606;2022-10-12T04:51:57;99877.41;;;9.17;54.78
74561;BME280;62979;55.720;37.606;2022-10-12T04:54:24;99866.84;;;9.23;54.59
74561;BME280;62979;55.720;37.606;2022-10-12T04:56:51;99861.50;;;9.32;54.42
74561;BME280;62979;55.720;37.606;2022-10-12T04:59:18;99866.66;;;9.34;54.20
74561;BME280;62979;55.720;37.606;2022-10-12T05:01:45;99869.97;;;9.45;54.17
74561;BME280;62979;55.720;37.606;2022-10-12T05:04:12;99872.50;;;9.50;54.86
74561;BME280;62979;55.720;37.606;2022-10-12T05:06:41;99849.94;;;9.47;54.65
74561;BME280;62979;55.720;37.606;2022-10-12T05:09:08;99882.63;;;9.68;53.58
74561;BME280;62979;55.720;37.606;2022-10-12T05:11:35;99881.59;;;9.75;53.64
74561;BME280;62979;55.720;37.606;2022-10-12T05:14:02;99885.88;;;9.81;53.14
74561;BME280;62979;55.720;37.606;2022-10-12T05:16:29;99884.22;;;9.75;52.48
74561;BME280;62979;55.720;37.606;2022-10-12T05:18:56;99885.06;;;9.77;52.38
74561;BME280;62979;55.720;37.606;2022-10-12T05:21:23;99870.22;;;9.81;53.11
74561;BME280;62979;55.720;37.606;2022-10-12T05:23:51;99871.66;;;9.96;53.06
74561;BME280;62979;55.720;37.606;2022-10-12T05:26:19;99877.91;;;9.89;51.95
74561;BME280;62979;55.720;37.606;2022-10-12T05:28:46;99871.59;;;9.99;52.50
74561;BME280;62979;55.720;37.606;2022-10-12T05:31:13;99869.91;;;9.98;51.85
74561;BME280;62979;55.720;37.606;2022-10-12T05:33:40;99875.84;;;10.04;51.40
74561;BME280;62979;55.720;37.606;2022-10-12T05:36:07;99881.03;;;10.07;51.47
74561;BME280;62979;55.720;37.606;2022-10-12T05:38:34;99877.44;;;10.13;50.72
74561;BME280;62979;55.720;37.606;2022-10-12T05:41:03;99868.88;;;10.05;50.73
74561;BME280;62979;55.720;37.606;2022-10-12T05:43:30;99876.81;;;10.00;50.17
74561;BME280;62979;55.720;37.606;2022-10-12T05:45:57;99875.06;;;9.99;50.31
74561;BME280;62979;55.720;37.606;2022-10-12T05:48:24;99876.91;;;9.96;50.77
74561;BME280;62979;55.720;37.606;2022-10-12T05:50:51;99877.59;;;10.04;50.83
74561;BME280;62979;55.720;37.606;2022-10-12T05:53:19;99878.34;;;10.11;50.25
74561;BME280;62979;55.720;37.606;2022-10-12T05:55:53;99879.28;;;10.08;49.95
74561;BME280;62979;55.720;37.606;2022-10-12T05:58:23;99869.81;;;10.02;49.56
74561;BME280;62979;55.720;37.606;2022-10-12T06:00:51;99869.56;;;10.15;50.16
74561;BME280;62979;55.720;37.606;2022-10-12T06:03:19;99878.97;;;10.23;49.44
74561;BME280;62979;55.720;37.606;2022-10-12T06:05:46;99870.41;;;10.15;49.63
74561;BME280;62979;55.720;37.606;2022-10-12T06:08:13;99874.16;;;10.47;49.86
74561;BME280;62979;55.720;37.606;2022-10-12T06:10:43;99875.91;;;10.46;48.74
74561;BME280;62979;55.720;37.606;2022-10-12T06:13:12;99875.00;;;10.49;49.69
74561;BME280;62979;55.720;37.606;2022-10-12T06:15:43;99848.28;;;10.35;49.48
74561;BME280;62979;55.720;37.606;2022-10-12T06:18:11;99868.09;;;10.45;48.65
74561;BME280;62979;55.720;37.606;2022-10-12T06:20:38;99876.13;;;10.36;48.98
74561;BME280;62979;55.720;37.606;2022-10-12T06:23:05;99864.38;;;10.13;49.00
74561;BME280;62979;55.720;37.606;2022-10-12T06:25:32;99879.97;;;10.16;49.31
74561;BME280;62979;55.720;37.606;2022-10-12T06:27:59;99871.25;;;10.17;49.14
74561;BME280;62979;55.720;37.606;2022-10-12T06:30:26;99870.41;;;10.15;49.64
74561;BME280;62979;55.720;37.606;2022-10-12T06:32:55;99876.19;;;10.33;49.82
74561;BME280;62979;55.720;37.606;2022-10-12T06:35:22;99871.72;;;10.38;49.35
74561;BME280;62979;55.720;37.606;2022-10-12T06:37:49;99875.28;;;10.35;48.68
74561;BME280;62979;55.720;37.606;2022-10-12T06:40:17;99870.84;;;10.39;49.00
74561;BME280;62979;55.720;37.606;2022-10-12T06:42:46;99875.38;;;10.31;49.04
74561;BME280;62979;55.720;37.606;2022-10-12T06:45:14;99878.56;;;10.45;48.76
74561;BME280;62979;55.720;37.606;2022-10-12T06:47:41;99869.50;;;10.61;48.87
74561;BME280;62979;55.720;37.606;2022-10-12T06:50:11;99868.41;;;10.71;48.15
74561;BME280;62979;55.720;37.606;2022-10-12T06:52:38;99868.03;;;10.87;48.50
74561;BME280;62979;55.720;37.606;2022-10-12T06:55:06;99859.97;;;10.96;47.82
74561;BME280;62979;55.720;37.606;2022-10-12T06:57:34;99858.00;;;11.07;47.97
74561;BME280;62979;55.720;37.606;2022-10-12T07:00:01;99850.91;;;11.11;46.38
74561;BME280;62979;55.720;37.606;2022-10-12T07:02:29;99857.72;;;11.18;45.58
74561;BME280;62979;55.720;37.606;2022-10-12T07:04:56;99851.09;;;11.03;45.42
74561;BME280;62979;55.720;37.606;2022-10-12T07:07:24;99847.66;;;11.01;45.43
74561;BME280;62979;55.720;37.606;2022-10-12T07:09:51;99853.91;;;10.94;45.59
74561;BME280;62979;55.720;37.606;2022-10-12T07:12:18;99856.31;;;11.03;45.91
74561;BME280;62979;55.720;37.606;2022-10-12T07:14:45;99851.88;;;11.07;45.09
74561;BME280;62979;55.720;37.606;2022-10-12T07:17:12;99862.19;;;11.14;45.31
74561;BME280;62979;55.720;37.606;2022-10-12T07:19:39;99859.31;;;11.24;45.67
74561;BME280;62979;55.720;37.606;2022-10-12T07:22:07;99864.00;;;11.47;45.94
74561;BME280;62979;55.720;37.606;2022-10-12T07:24:35;99853.41;;;11.51;44.98
74561;BME280;62979;55.720;37.606;2022-10-12T07:27:04;99839.28;;;11.57;45.27
74561;BME280;62979;55.720;37.606;2022-10-12T07:29:33;99855.28;;;11.79;44.82
74561;BME280;62979;55.720;37.606;2022-10-12T07:32:01;99862.94;;;11.88;44.84
74561;BME280;62979;55.720;37.606;2022-10-12T07:34:29;99856.50;;;12.00;44.12
74561;BME280;62979;55.720;37.606;2022-10-12T07:36:56;99846.53;;;12.13;43.88
74561;BME280;62979;55.720;37.606;2022-10-12T07:39:24;99862.84;;;12.23;43.88
74561;BME280;62979;55.720;37.606;2022-10-12T07:41:52;99848.31;;;12.42;43.21
74561;BME280;62979;55.720;37.606;2022-10-12T07:44:20;99855.19;;;12.74;43.57
74561;BME280;62979;55.720;37.606;2022-10-12T07:46:48;99847.38;;;13.01;42.90
74561;BME280;62979;55.720;37.606;2022-10-12T07:49:16;99839.63;;;13.24;42.33
74561;BME280;62979;55.720;37.606;2022-10-12T07:51:44;99853.06;;;13.42;41.95
74561;BME280;62979;55.720;37.606;2022-10-12T07:54:12;99845.16;;;13.68;41.83
74561;BME280;62979;55.720;37.606;2022-10-12T07:56:39;99850.69;;;13.61;40.92
74561;BME280;62979;55.720;37.606;2022-10-12T07:59:08;99847.41;;;13.54;41.99
74561;BME280;62979;55.720;37.606;2022-10-12T08:01:36;99840.94;;;13.63;42.48
74561;BME280;62979;55.720;37.606;2022-10-12T08:04:03;99833.03;;;13.64;41.57
74561;BME280;62979;55.720;37.606;2022-10-12T08:06:32;99838.09;;;13.70;42.58
74561;BME280;62979;55.720;37.606;2022-10-12T08:09:00;99840.59;;;13.74;42.20
74561;BME280;62979;55.720;37.606;2022-10-12T08:11:28;99839.47;;;13.81;42.01
74561;BME280;62979;55.720;37.606;2022-10-12T08:13:55;99840.09;;;13.87;41.42
74561;BME280;62979;55.720;37.606;2022-10-12T08:16:24;99838.53;;;13.82;41.10
74561;BME280;62979;55.720;37.606;2022-10-12T08:18:51;99836.69;;;13.85;42.29
74561;BME280;62979;55.720;37.606;2022-10-12T08:21:18;99841.81;;;13.88;41.54
74561;BME280;62979;55.720;37.606;2022-10-12T08:23:45;99830.78;;;13.79;41.63
74561;BME280;62979;55.720;37.606;2022-10-12T08:26:14;99834.66;;;13.92;41.78
74561;BME280;62979;55.720;37.606;2022-10-12T08:28:41;99837.28;;;13.92;41.73
74561;BME280;62979;55.720;37.606;2022-10-12T08:31:10;99835.78;;;13.85;41.82
74561;BME280;62979;55.720;37.606;2022-10-12T08:33:40;99826.47;;;13.76;42.24
74561;BME280;62979;55.720;37.606;2022-10-12T08:36:08;99834.41;;;13.75;42.55
74561;BME280;62979;55.720;37.606;2022-10-12T08:38:37;99843.41;;;13.67;42.51
74561;BME280;62979;55.720;37.606;2022-10-12T08:41:18;99841.44;;;13.49;42.84
74561;BME280;62979;55.720;37.606;2022-10-12T08:44:05;99832.72;;;13.48;42.95
74561;BME280;62979;55.720;37.606;2022-10-12T08:46:45;99833.03;;;13.64;43.14
74561;BME280;62979;55.720;37.606;2022-10-12T08:49:16;99836.03;;;13.79;43.90
74561;BME280;62979;55.720;37.606;2022-10-12T08:51:49;99843.84;;;13.55;44.29
74561;BME280;62979;55.720;37.606;2022-10-12T08:54:21;99839.66;;;13.49;44.96
74561;BME280;62979;55.720;37.606;2022-10-12T08:56:52;99836.31;;;13.18;45.82
74561;BME280;62979;55.720;37.606;2022-10-12T08:59:19;99839.34;;;13.05;46.43
74561;BME280;62979;55.720;37.606;2022-10-12T09:01:58;99844.91;;;13.23;46.35
74561;BME280;62979;55.720;37.606;2022-10-12T09:04:46;99846.50;;;13.28;45.76
74561;BME280;62979;55.720;37.606;2022-10-12T09:07:22;99846.16;;;13.39;45.21
74561;BME280;62979;55.720;37.606;2022-10-12T09:10:01;99816.56;;;13.34;45.51
74561;BME280;62979;55.720;37.606;2022-10-12T09:12:45;99842.38;;;13.73;44.28
74561;BME280;62979;55.720;37.606;2022-10-12T09:15:22;99838.16;;;13.67;44.04
74561;BME280;62979;55.720;37.606;2022-10-12T09:17:55;99839.78;;;13.72;44.16
74561;BME280;62979;55.720;37.606;2022-10-12T09:20:28;99843.00;;;13.80;43.88
74561;BME280;62979;55.720;37.606;2022-10-12T09:23:02;99836.97;;;14.01;43.94
74561;BME280;62979;55.720;37.606;2022-10-12T09:25:48;99840.00;;;14.14;43.23
74561;BME280;62979;55.720;37.606;2022-10-12T09:28:19;99833.25;;;14.30;43.19
74561;BME280;62979;55.720;37.606;2022-10-12T09:31:02;99840.31;;;14.30;42.47
74561;BME280;62979;55.720;37.606;2022-10-12T09:33:46;99849.84;;;14.32;42.40
74561;BME280;62979;55.720;37.606;2022-10-12T09:36:20;99836.44;;;14.39;42.98
74561;BME280;62979;55.720;37.606;2022-10-12T09:38:50;99838.69;;;14.49;42.87
74561;BME280;62979;55.720;37.606;2022-10-12T09:41:21;99841.44;;;14.46;42.34
74561;BME280;62979;55.720;37.606;2022-10-12T09:43:52;99833.47;;;14.48;41.94
74561;BME280;62979;55.720;37.606;2022-10-12T09:46:28;99836.88;;;14.51;42.27
74561;BME280;62979;55.720;37.606;2022-10-12T09:49:02;99840.34;;;14.53;42.39
74561;BME280;62979;55.720;37.606;2022-10-12T09:51:31;99830.69;;;14.52;42.01
74561;BME280;62979;55.720;37.606;2022-10-12T09:53:59;99839.59;;;14.48;41.98
74561;BME280;62979;55.720;37.606;2022-10-12T09:56:34;99836.97;;;14.48;42.15
74561;BME280;62979;55.720;37.606;2022-10-12T09:59:07;99844.53;;;14.34;42.42
74561;BME280;62979;55.720;37.606;2022-10-12T10:01:56;99846.88;;;14.18;43.01
74561;BME280;62979;55.720;37.606;2022-10-12T10:04:29;99840.94;;;14.37;43.46
74561;BME280;62979;55.720;37.606;2022-10-12T10:07:12;99832.66;;;14.46;43.37
74561;BME280;62979;55.720;37.606;2022-10-12T10:09:46;99841.00;;;14.35;42.84
74561;BME280;62979;55.720;37.606;2022-10-12T10:12:21;99848.16;;;14.31;43.09
74561;BME280;62979;55.720;37.606;2022-10-12T10:14:53;99846.63;;;14.48;43.42
74561;BME280;62979;55.720;37.606;2022-10-12T10:17:24;99845.00;;;14.22;42.67
74561;BME280;62979;55.720;37.606;2022-10-12T10:19:55;99850.25;;;14.22;43.02
74561;BME280;62979;55.720;37.606;2022-10-12T10:22:25;99847.84;;;14.16;43.52
74561;BME280;62979;55.720;37.606;2022-10-12T10:24:55;99851.41;;;14.15;43.28
74561;BME280;62979;55.720;37.606;2022-10-12T10:27:30;99855.91;;;14.34;43.26
74561;BME280;62979;55.720;37.606;2022-10-12T10:30:12;99854.69;;;14.43;42.79
74561;BME280;62979;55.720;37.606;2022-10-12T10:32:46;99851.06;;;14.71;42.31
74561;BME280;62979;55.720;37.606;2022-10-12T10:35:18;99854.69;;;14.90;42.01
74561;BME280;62979;55.720;37.606;2022-10-12T10:37:50;99856.25;;;14.94;42.45
74561;BME280;62979;55.720;37.606;2022-10-12T10:40:23;99853.09;;;14.86;42.89
74561;BME280;62979;55.720;37.606;2022-10-12T10:42:53;99853.44;;;14.99;42.82
74561;BME280;62979;55.720;37.606;2022-10-12T10:45:23;99859.19;;;14.65;42.63
74561;BME280;62979;55.720;37.606;2022-10-12T10:47:53;99857.91;;;14.51;43.29
74561;BME280;62979;55.720;37.606;2022-10-12T10:50:30;99859.13;;;14.43;44.12
74561;BME280;62979;55.720;37.606;2022-10-12T10:53:03;99839.22;;;14.59;44.50
74561;BME280;62979;55.720;37.606;2022-10-12T10:55:41;99855.66;;;14.88;42.88
74561;BME280;62979;55.720;37.606;2022-10-12T10:58:21;99849.28;;;14.71;42.44
74561;BME280;62979;55.720;37.606;2022-10-12T11:00:57;99858.97;;;14.93;42.01
74561;BME280;62979;55.720;37.606;2022-10-12T11:03:32;99856.75;;;16.29;41.12
74561;BME280;62979;55.720;37.606;2022-10-12T11:06:15;99854.56;;;17.49;38.16
74561;BME280;62979;55.720;37.606;2022-10-12T11:08:55;99860.88;;;18.48;36.04
74561;BME280;62979;55.720;37.606;2022-10-12T11:11:31;99859.06;;;19.28;35.15
74561;BME280;62979;55.720;37.606;2022-10-12T11:14:08;99849.63;;;19.98;33.88
74561;BME280;62979;55.720;37.606;2022-10-12T11:16:40;99864.31;;;20.47;32.54
74561;BME280;62979;55.720;37.606;2022-10-12T11:19:23;99858.16;;;20.61;31.91
74561;BME280;62979;55.720;37.606;2022-10-12T11:21:58;99863.28;;;20.21;32.35
74561;BME280;62979;55.720;37.606;2022-10-12T11:24:32;99873.25;;;21.02;32.00
74561;BME280;62979;55.720;37.606;2022-10-12T11:27:12;99875.41;;;20.53;32.16
74561;BME280;62979;55.720;37.606;2022-10-12T11:29:43;99878.31;;;19.92;33.32
74561;BME280;62979;55.720;37.606;2022-10-12T11:32:21;99884.09;;;19.84;33.55
74561;BME280;62979;55.720;37.606;2022-10-12T11:34:57;99873.44;;;19.23;34.13
74561;BME280;62979;55.720;37.606;2022-10-12T11:37:32;99874.22;;;18.62;36.59
74561;BME280;62979;55.720;37.606;2022-10-12T11:40:08;99876.41;;;17.87;36.78
74561;BME280;62979;55.720;37.606;2022-10-12T11:42:43;99882.00;;;17.29;38.97
74561;BME280;62979;55.720;37.606;2022-10-12T11:45:18;99873.28;;;16.90;39.81
74561;BME280;62979;55.720;37.606;2022-10-12T11:47:53;99881.16;;;16.72;40.33
74561;BME280;62979;55.720;37.606;2022-10-12T11:50:29;99889.03;;;16.54;40.51
74561;BME280;62979;55.720;37.606;2022-10-12T11:53:03;99891.22;;;15.84;42.16
74561;BME280;62979;55.720;37.606;2022-10-12T11:55:56;99892.44;;;15.33;43.76
74561;BME280;62979;55.720;37.606;2022-10-12T11:58:34;99890.09;;;15.05;44.59
74561;BME280;62979;55.720;37.606;2022-10-12T12:04:15;99907.66;;;14.59;46.24
74561;BME280;62979;55.720;37.606;2022-10-12T12:06:53;99907.72;;;14.58;46.24
74561;BME280;62979;55.720;37.606;2022-10-12T12:09:43;99897.13;;;14.10;47.30
74561;BME280;62979;55.720;37.606;2022-10-12T12:12:20;99903.63;;;14.00;47.86
74561;BME280;62979;55.720;37.606;2022-10-12T12:15:00;99909.19;;;13.91;47.91
74561;BME280;62979;55.720;37.606;2022-10-12T12:17:32;99912.50;;;13.98;48.04
74561;BME280;62979;55.720;37.606;2022-10-12T12:20:01;99901.09;;;13.97;48.20
74561;BME280;62979;55.720;37.606;2022-10-12T12:22:47;99916.94;;;13.70;48.98
74561;BME280;62979;55.720;37.606;2022-10-12T12:25:19;99907.88;;;13.53;49.59
74561;BME280;62979;55.720;37.606;2022-10-12T12:27:56;99911.66;;;13.70;49.32
74561;BME280;62979;55.720;37.606;2022-10-12T12:30:29;99910.72;;;13.98;49.37
74561;BME280;62979;55.720;37.606;2022-10-12T12:33:01;99919.50;;;13.97;48.59
74561;BME280;62979;55.720;37.606;2022-10-12T12:35:34;99910.81;;;13.95;48.76
74561;BME280;62979;55.720;37.606;2022-10-12T12:38:17;99906.06;;;13.80;49.01
74561;BME280;62979;55.720;37.606;2022-10-12T12:40:57;99916.59;;;13.80;49.01
74561;BME280;62979;55.720;37.606;2022-10-12T12:43:38;99927.19;;;13.78;49.45
74561;BME280;62979;55.720;37.606;2022-10-12T12:46:18;99926.72;;;13.65;49.11
74561;BME280;62979;55.720;37.606;2022-10-12T12:49:00;99920.25;;;13.76;49.59
74561;BME280;62979;55.720;37.606;2022-10-12T12:51:37;99932.38;;;13.80;49.73
74561;BME280;62979;55.720;37.606;2022-10-12T12:54:18;99934.38;;;13.46;49.84
74561;BME280;62979;55.720;37.606;2022-10-12T12:57:03;99928.63;;;13.34;50.28
74561;BME280;62979;55.720;37.606;2022-10-12T13:00:03;99931.56;;;13.23;50.46
74561;BME280;62979;55.720;37.606;2022-10-12T13:06:31;99939.06;;;13.37;50.23
74561;BME280;62979;55.720;37.606;2022-10-12T13:09:35;99943.94;;;13.47;50.15
74561;BME280;62979;55.720;37.606;2022-10-12T13:12:34;99953.63;;;13.45;49.91
74561;BME280;62979;55.720;37.606;2022-10-12T13:15:37;99943.75;;;12.97;51.17
74561;BME280;62979;55.720;37.606;2022-10-12T13:21:19;99952.50;;;12.37;53.55
74561;BME280;62979;55.720;37.606;2022-10-12T13:23:57;99956.22;;;12.28;53.94
74561;BME280;62979;55.720;37.606;2022-10-12T13:26:33;99942.28;;;12.26;54.11
74561;BME280;62979;55.720;37.606;2022-10-12T13:29:07;99959.88;;;12.54;53.94
74561;BME280;62979;55.720;37.606;2022-10-12T13:31:45;99955.78;;;12.43;54.17